createdAt,value
2022-10-06T00:01:15.866Z,98466.75
2022-10-06T00:03:45.360Z,98470.66
2022-10-06T00:06:15.615Z,98472.28
2022-10-06T00:08:45.075Z,98470.66
2022-10-06T00:11:15.276Z,98476.16
2022-10-06T00:13:43.772Z,98474.53
2022-10-06T00:16:17.253Z,98475.34
2022-10-06T00:18:46.399Z,98485.59
2022-10-06T00:21:15.134Z,98484.75
2022-10-06T00:23:43.684Z,98488.34
2022-10-06T00:26:16.693Z,98483.94
2022-10-06T00:28:47.711Z,98484.75
2022-10-06T00:31:19.401Z,98485.59
2022-10-06T00:33:50.095Z,98482.00
2022-10-06T00:36:18.916Z,98492.25
2022-10-06T00:38:47.347Z,98488.34
2022-10-06T00:41:18.496Z,98489.47
2022-10-06T00:43:51.337Z,98496.63
2022-10-06T00:46:28.046Z,98498.59
2022-10-06T00:49:01.980Z,98496.63
2022-10-06T00:51:31.542Z,98506.06
2022-10-06T00:54:00.008Z,98499.41
2022-10-06T00:56:28.580Z,98500.53
2022-10-06T00:58:56.964Z,98503.28
2022-10-06T01:01:27.095Z,98499.72
2022-10-06T01:04:01.735Z,98500.53
2022-10-06T01:06:30.155Z,98500.53
2022-10-06T01:08:58.597Z,98502.47
2022-10-06T01:11:27.537Z,98497.75
2022-10-06T01:13:55.895Z,98505.22
2022-10-06T01:16:27.998Z,98499.72
2022-10-06T01:18:57.103Z,98504.41
2022-10-06T01:21:31.128Z,98504.41
2022-10-06T01:24:02.416Z,98504.41
2022-10-06T01:26:34.802Z,98504.41
2022-10-06T01:29:03.949Z,98505.22
2022-10-06T01:31:32.614Z,98504.41
2022-10-06T01:34:01.543Z,98504.41
2022-10-06T01:36:30.424Z,98504.41
2022-10-06T01:38:58.818Z,98503.59
2022-10-06T01:41:30.365Z,98512.69
2022-10-06T01:43:58.738Z,98507.19
2022-10-06T01:46:30.262Z,98508.31
2022-10-06T01:48:58.821Z,98513.81
2022-10-06T01:51:27.388Z,98514.66
2022-10-06T01:53:55.775Z,98522.13
2022-10-06T01:56:24.349Z,98524.06
2022-10-06T01:58:54.109Z,98522.13
2022-10-06T02:01:22.630Z,98519.34
2022-10-06T02:03:50.979Z,98522.13
2022-10-06T02:06:19.450Z,98524.06
2022-10-06T02:08:47.972Z,98528.75
2022-10-06T02:11:16.915Z,98535.94
2022-10-06T02:13:47.057Z,98541.47
2022-10-06T02:16:16.890Z,98537.88
2022-10-06T02:18:45.365Z,98542.28
2022-10-06T02:21:18.412Z,98546.97
2022-10-06T02:23:47.492Z,98541.75
2022-10-06T02:26:17.802Z,98541.75
2022-10-06T02:28:47.611Z,98552.50
2022-10-06T02:31:21.728Z,98556.41
2022-10-06T02:33:50.331Z,98562.75
2022-10-06T02:36:20.085Z,98567.44
2022-10-06T02:38:48.490Z,98578.50
2022-10-06T02:41:17.528Z,98571.84
2022-10-06T02:43:47.535Z,98570.22
2022-10-06T02:46:16.655Z,98574.91
2022-10-06T02:48:53.737Z,98577.97
2022-10-06T02:51:23.802Z,98584.03
2022-10-06T02:53:52.790Z,98578.50
2022-10-06T02:56:23.224Z,98587.59
2022-10-06T02:58:53.087Z,98601.44
2022-10-06T03:01:31.200Z,98592.31
2022-10-06T03:04:04.396Z,98595.06
2022-10-06T03:06:32.765Z,98604.50
2022-10-06T03:09:15.533Z,98605.31
2022-10-06T03:11:45.652Z,98613.59
2022-10-06T03:14:23.047Z,98612.78
2022-10-06T03:16:54.646Z,98622.72
2022-10-06T03:19:28.103Z,98616.38
2022-10-06T03:21:56.898Z,98621.06
2022-10-06T03:24:48.728Z,98628.22
2022-10-06T03:27:17.098Z,98632.13
2022-10-06T03:29:45.990Z,98627.41
2022-10-06T03:32:15.335Z,98632.13
2022-10-06T03:34:46.748Z,98638.47
2022-10-06T03:37:19.032Z,98644.28
2022-10-06T03:39:47.567Z,98653.41
2022-10-06T03:42:16.254Z,98647.06
2022-10-06T03:44:44.666Z,98654.22
2022-10-06T03:47:16.953Z,98663.63
2022-10-06T03:49:47.344Z,98665.28
2022-10-06T03:52:20.140Z,98670.28
2022-10-06T03:54:51.154Z,98676.31
2022-10-06T03:57:19.601Z,98680.22
2022-10-06T03:59:48.040Z,98673.88
2022-10-06T04:02:17.134Z,98678.28
2022-10-06T04:04:46.908Z,98680.22
2022-10-06T04:07:15.301Z,98681.84
2022-10-06T04:09:44.141Z,98682.97
2022-10-06T04:12:16.860Z,98692.09
2022-10-06T04:14:45.401Z,98696.78
2022-10-06T04:17:13.831Z,98691.25
2022-10-06T04:19:43.048Z,98707.03
2022-10-06T04:22:13.153Z,98714.19
2022-10-06T04:24:41.710Z,98717.78
2022-10-06T04:27:25.436Z,98713.97
2022-10-06T04:30:02.324Z,98721.66
2022-10-06T04:32:32.219Z,98726.66
2022-10-06T04:35:00.696Z,98736.28
2022-10-06T04:37:30.610Z,98739.06
2022-10-06T04:39:59.824Z,98732.72
2022-10-06T04:42:34.688Z,98733.53
2022-10-06T04:45:05.016Z,98738.22
2022-10-06T04:47:34.160Z,98735.47
2022-10-06T04:50:02.729Z,98736.59
2022-10-06T04:52:32.807Z,98746.53
2022-10-06T04:55:01.244Z,98750.41
2022-10-06T04:57:29.689Z,98747.66
2022-10-06T05:00:15.761Z,98748.47
2022-10-06T05:02:47.166Z,98755.94
2022-10-06T05:05:15.802Z,98761.47
2022-10-06T05:07:46.749Z,98764.22
2022-10-06T05:10:15.968Z,98768.94
2022-10-06T05:12:44.608Z,98767.00
2022-10-06T05:15:13.103Z,98763.41
2022-10-06T05:17:41.558Z,98767.00
2022-10-06T05:20:12.037Z,98770.88
2022-10-06T05:22:40.676Z,98770.88
2022-10-06T05:25:10.823Z,98774.75
2022-10-06T05:27:39.233Z,98784.16
2022-10-06T05:30:08.667Z,98777.00
2022-10-06T05:32:37.122Z,98786.91
2022-10-06T05:35:07.348Z,98790.50
2022-10-06T05:37:35.948Z,98791.31
2022-10-06T05:40:05.120Z,98796.84
2022-10-06T05:42:34.893Z,98802.38
2022-10-06T05:45:03.301Z,98802.38
2022-10-06T05:47:32.041Z,98809.56
2022-10-06T05:50:00.483Z,98806.25
2022-10-06T05:52:29.196Z,98812.59
2022-10-06T05:54:57.840Z,98807.94
2022-10-06T05:57:26.794Z,98807.78
2022-10-06T05:59:56.576Z,98809.78
2022-10-06T06:02:25.031Z,98820.28
2022-10-06T06:04:53.536Z,98816.41
2022-10-06T06:07:22.079Z,98821.66
2022-10-06T06:09:50.520Z,98821.66
2022-10-06T06:12:18.944Z,98828.00
2022-10-06T06:15:33.777Z,98826.34
2022-10-06T06:18:05.969Z,98832.69
2022-10-06T06:20:34.340Z,98839.88
2022-10-06T06:23:02.988Z,98847.84
2022-10-06T06:25:32.097Z,98847.84
2022-10-06T06:28:00.570Z,98846.22
2022-10-06T06:30:30.364Z,98859.44
2022-10-06T06:33:00.341Z,98854.44
2022-10-06T06:35:30.046Z,98862.72
2022-10-06T06:37:59.371Z,98864.91
2022-10-06T06:40:27.903Z,98872.06
2022-10-06T06:42:56.426Z,98871.78
2022-10-06T06:46:05.128Z,98876.47
2022-10-06T06:48:58.887Z,98874.53
2022-10-06T06:51:28.414Z,98881.19
2022-10-06T06:53:59.370Z,98885.88
2022-10-06T06:56:28.077Z,98888.66
2022-10-06T06:58:56.498Z,98887.81
2022-10-06T07:01:26.903Z,98901.34
2022-10-06T07:03:58.294Z,98897.47
2022-10-06T07:06:30.507Z,98892.75
2022-10-06T07:09:01.322Z,98909.59
2022-10-06T07:11:33.384Z,98912.38
2022-10-06T07:14:05.708Z,98908.78
2022-10-06T07:16:54.209Z,98915.13
2022-10-06T07:19:41.261Z,98904.59
2022-10-06T07:22:33.768Z,98908.50
2022-10-06T07:25:12.535Z,98905.72
2022-10-06T07:27:46.176Z,98916.78
2022-10-06T07:30:19.162Z,98921.72
2022-10-06T07:32:54.357Z,98927.84
2022-10-06T07:35:25.624Z,98930.53
2022-10-06T07:37:54.399Z,98932.19
2022-10-06T07:40:25.309Z,98928.31
2022-10-06T07:42:53.734Z,98940.75
2022-10-06T07:45:42.245Z,98944.06
2022-10-06T07:48:34.740Z,98947.13
2022-10-06T07:51:08.538Z,98954.88
2022-10-06T07:53:38.966Z,98953.22
2022-10-06T07:56:22.192Z,98953.22
2022-10-06T07:58:53.898Z,98956.53
2022-10-06T08:01:22.557Z,98963.69
2022-10-06T08:03:52.476Z,98963.69
2022-10-06T08:06:23.123Z,98964.75
2022-10-06T08:08:53.409Z,98964.75
2022-10-06T08:11:22.784Z,98967.81
2022-10-06T08:13:51.779Z,98967.00
2022-10-06T08:16:21.994Z,98967.00
2022-10-06T08:18:53.168Z,98979.16
2022-10-06T08:21:23.447Z,98979.09
2022-10-06T08:23:53.376Z,98985.69
2022-10-06T08:26:25.044Z,98982.88
2022-10-06T08:28:55.265Z,98989.53
2022-10-06T08:31:24.392Z,99002.22
2022-10-06T08:33:57.083Z,99010.28
2022-10-06T08:36:31.339Z,99008.69
2022-10-06T08:39:00.889Z,99003.22
2022-10-06T08:41:38.577Z,99009.59
2022-10-06T08:44:19.621Z,99006.88
2022-10-06T08:46:56.138Z,99009.09
2022-10-06T08:49:28.257Z,99001.16
2022-10-06T08:52:09.086Z,99009.72
2022-10-06T08:54:42.305Z,99006.97
2022-10-06T08:57:17.595Z,99011.91
2022-10-06T08:59:48.968Z,99013.25
2022-10-06T09:02:28.302Z,99021.25
2022-10-06T09:05:01.488Z,99020.16
2022-10-06T09:07:40.203Z,99022.38
2022-10-06T09:10:27.003Z,99020.19
2022-10-06T09:13:01.457Z,99019.38
2022-10-06T09:15:35.003Z,99025.72
2022-10-06T09:18:10.778Z,99024.88
2022-10-06T09:20:44.635Z,99025.72
2022-10-06T09:23:17.425Z,99024.34
2022-10-06T09:25:45.876Z,99034.59
2022-10-06T09:28:16.260Z,99031.00
2022-10-06T09:30:44.844Z,99027.66
2022-10-06T09:33:22.182Z,99035.66
2022-10-06T09:36:09.237Z,99029.84
2022-10-06T09:38:48.161Z,99038.66
2022-10-06T09:41:17.389Z,99041.13
2022-10-06T09:43:55.168Z,99038.06
2022-10-06T09:46:31.246Z,99040.59
2022-10-06T09:49:17.996Z,99032.81
2022-10-06T09:52:14.898Z,99033.41
2022-10-06T09:54:44.790Z,99035.59
2022-10-06T09:57:17.277Z,99036.13
2022-10-06T09:59:47.831Z,99033.91
2022-10-06T10:02:28.161Z,99035.53
2022-10-06T10:04:57.946Z,99034.97
2022-10-06T10:07:29.637Z,99038.84
2022-10-06T10:10:19.108Z,99030.25
2022-10-06T10:12:51.877Z,99036.59
2022-10-06T10:15:31.159Z,99036.91
2022-10-06T10:18:02.957Z,99028.56
2022-10-06T10:20:35.077Z,99024.16
2022-10-06T10:23:27.192Z,99023.03
2022-10-06T10:26:17.474Z,99026.63
2022-10-06T10:29:12.130Z,99024.97
2022-10-06T10:31:50.804Z,99029.91
2022-10-06T10:34:45.561Z,99033.78
2022-10-06T10:37:18.199Z,99036.78
2022-10-06T10:39:52.409Z,99038.44
2022-10-06T10:42:28.619Z,99039.84
2022-10-06T10:45:01.733Z,99032.63
2022-10-06T10:47:35.230Z,99034.84
2022-10-06T10:50:12.270Z,99033.78
2022-10-06T10:52:43.318Z,99027.44
2022-10-06T10:55:21.710Z,99026.81
2022-10-06T10:57:51.764Z,99020.44
2022-10-06T11:00:22.906Z,99011.28
2022-10-06T11:02:54.927Z,99015.94
2022-10-06T11:05:39.469Z,99020.88
2022-10-06T11:08:12.348Z,99024.16
2022-10-06T11:10:48.584Z,99016.41
2022-10-06T11:13:25.862Z,99016.41
2022-10-06T11:16:07.803Z,99021.34
2022-10-06T11:18:51.761Z,99017.47
2022-10-06T11:21:24.477Z,99014.69
2022-10-06T11:23:57.479Z,99011.94
2022-10-06T11:26:40.944Z,99014.41
2022-10-06T11:29:21.178Z,99016.34
2022-10-06T11:32:00.654Z,99013.56
2022-10-06T11:34:29.158Z,99014.41
2022-10-06T11:37:06.998Z,99006.94
2022-10-06T11:39:47.030Z,99014.41
2022-10-06T11:42:24.907Z,99009.69
2022-10-06T11:45:01.405Z,99009.69
2022-10-06T11:47:35.937Z,99009.09
2022-10-06T11:50:33.094Z,99012.41
2022-10-06T11:53:01.941Z,99009.34
2022-10-06T11:55:30.924Z,99004.03
2022-10-06T11:58:40.923Z,99005.16
2022-10-06T12:01:05.421Z,99007.34
2022-10-06T12:04:13.953Z,99005.69
2022-10-06T12:07:04.394Z,99000.41
2022-10-06T12:09:53.634Z,98996.81
2022-10-06T12:13:06.661Z,99006.75
2022-10-06T12:19:21.774Z,98996.22
2022-10-06T12:22:01.417Z,98993.16
2022-10-06T12:24:42.355Z,98992.63
2022-10-06T12:27:37.653Z,98997.34
2022-10-06T12:30:18.282Z,98993.44
2022-10-06T12:32:52.965Z,98994.28
2022-10-06T12:35:33.161Z,98988.50
2022-10-06T12:38:04.726Z,98992.97
2022-10-06T12:40:46.620Z,98987.22
2022-10-06T12:43:28.132Z,98990.88
2022-10-06T12:45:59.618Z,98979.06
2022-10-06T12:48:35.305Z,98988.75
2022-10-06T12:51:08.013Z,98990.75
2022-10-06T12:53:41.636Z,98983.34
2022-10-06T12:56:26.802Z,98982.81
2022-10-06T12:58:55.713Z,98982.81
2022-10-06T13:01:25.890Z,98977.59
2022-10-06T13:03:56.175Z,98988.94
2022-10-06T13:06:26.230Z,98980.63
2022-10-06T13:09:07.474Z,98981.16
2022-10-06T13:11:36.409Z,98982.81
2022-10-06T13:14:11.237Z,98972.28
2022-10-06T13:16:41.669Z,98976.41
2022-10-06T13:19:19.093Z,98968.41
2022-10-06T13:21:47.925Z,98970.59
2022-10-06T13:24:20.469Z,98970.28
2022-10-06T13:26:49.377Z,98963.94
2022-10-06T13:29:20.549Z,98970.28
2022-10-06T13:31:52.944Z,98967.22
2022-10-06T13:34:30.078Z,98965.59
2022-10-06T13:37:00.249Z,98962.81
2022-10-06T13:39:31.608Z,98967.22
2022-10-06T13:42:03.384Z,98968.34
2022-10-06T13:44:39.462Z,98961.16
2022-10-06T13:47:16.617Z,98965.06
2022-10-06T13:49:50.724Z,98965.06
2022-10-06T13:52:23.755Z,98968.41
2022-10-06T13:54:55.724Z,98967.28
2022-10-06T13:57:39.362Z,98961.47
2022-10-06T14:00:17.847Z,98955.41
2022-10-06T14:02:48.811Z,98960.66
2022-10-06T14:05:31.361Z,98966.16
2022-10-06T14:08:01.898Z,98965.88
2022-10-06T14:10:37.619Z,98962.28
2022-10-06T14:13:09.614Z,98965.88
2022-10-06T14:15:47.788Z,98970.06
2022-10-06T14:18:21.913Z,98966.16
2022-10-06T14:20:51.936Z,98955.13
2022-10-06T14:23:41.908Z,98954.00
2022-10-06T14:26:11.621Z,98954.00
2022-10-06T14:28:40.666Z,98952.66
2022-10-06T14:31:14.509Z,98953.47
2022-10-06T14:33:43.923Z,98946.28
2022-10-06T14:36:21.812Z,98951.00
2022-10-06T14:38:52.004Z,98949.34
2022-10-06T14:41:24.669Z,98946.88
2022-10-06T14:43:54.210Z,98945.22
2022-10-06T14:46:22.956Z,98944.41
2022-10-06T14:48:51.828Z,98943.88
2022-10-06T14:51:23.921Z,98940.59
2022-10-06T14:53:54.292Z,98938.94
2022-10-06T14:56:24.598Z,98944.78
2022-10-06T14:58:53.873Z,98935.13
2022-10-06T15:01:25.436Z,98935.94
2022-10-06T15:03:55.098Z,98938.19
2022-10-06T15:06:43.041Z,98937.34
2022-10-06T15:09:12.071Z,98935.72
2022-10-06T15:11:41.195Z,98932.13
2022-10-06T15:14:10.600Z,98927.72
2022-10-06T15:16:42.165Z,98929.38
2022-10-06T15:19:11.979Z,98929.06
2022-10-06T15:21:45.226Z,98925.47
2022-10-06T15:24:15.888Z,98923.84
2022-10-06T15:27:07.753Z,98918.91
2022-10-06T15:29:36.532Z,98923.59
2022-10-06T15:32:07.069Z,98919.19
2022-10-06T15:34:37.505Z,98917.53
2022-10-06T15:37:07.324Z,98916.19
2022-10-06T15:39:37.593Z,98920.06
2022-10-06T15:42:06.851Z,98912.91
2022-10-06T15:44:35.670Z,98913.50
2022-10-06T15:47:06.069Z,98920.66
2022-10-06T15:49:38.405Z,98910.44
2022-10-06T15:52:09.732Z,98913.72
2022-10-06T15:54:40.696Z,98920.06
2022-10-06T15:57:15.051Z,98914.53
2022-10-06T15:59:46.522Z,98912.06
2022-10-06T16:02:16.858Z,98917.84
2022-10-06T16:04:57.597Z,98917.84
2022-10-06T16:07:28.667Z,98920.31
2022-10-06T16:09:57.119Z,98910.06
2022-10-06T16:12:28.393Z,98902.31
2022-10-06T16:14:56.823Z,98912.25
2022-10-06T16:17:25.199Z,98910.59
2022-10-06T16:19:53.614Z,98915.59
2022-10-06T16:22:22.017Z,98920.59
2022-10-06T16:24:52.128Z,98921.72
2022-10-06T16:27:20.605Z,98919.78
2022-10-06T16:29:49.013Z,98909.84
2022-10-06T16:32:17.443Z,98913.72
2022-10-06T16:34:50.247Z,98911.78
2022-10-06T16:37:18.860Z,98907.84
2022-10-06T16:39:47.278Z,98909.38
2022-10-06T16:42:17.944Z,98915.59
2022-10-06T16:44:46.370Z,98912.16
2022-10-06T16:47:14.844Z,98917.63
2022-10-06T16:49:43.511Z,98915.09
2022-10-06T16:52:11.897Z,98915.31
2022-10-06T16:54:40.286Z,98921.09
2022-10-06T16:57:08.698Z,98921.31
2022-10-06T16:59:41.103Z,98926.25
2022-10-06T17:02:11.677Z,98930.38
2022-10-06T17:04:40.078Z,98921.41
2022-10-06T17:07:09.388Z,98923.88
2022-10-06T17:09:37.826Z,98932.72
2022-10-06T17:12:06.395Z,98930.78
2022-10-06T17:14:35.519Z,98935.19
2022-10-06T17:17:05.705Z,98934.88
2022-10-06T17:19:34.179Z,98933.78
2022-10-06T17:22:02.564Z,98929.06
2022-10-06T17:24:31.274Z,98933.78
2022-10-06T17:27:00.321Z,98934.59
2022-10-06T17:29:28.786Z,98937.94
2022-10-06T17:32:00.400Z,98931.91
2022-10-06T17:34:32.879Z,98940.59
2022-10-06T17:37:03.026Z,98942.69
2022-10-06T17:39:31.916Z,98948.63
2022-10-06T17:42:00.361Z,98948.16
2022-10-06T17:44:31.061Z,98946.88
2022-10-06T17:47:01.166Z,98946.94
2022-10-06T17:49:34.593Z,98952.00
2022-10-06T17:52:03.110Z,98947.59
2022-10-06T17:56:41.435Z,98948.06
2022-10-06T17:59:14.357Z,98945.81
2022-10-06T18:01:44.316Z,98953.53
2022-10-06T18:04:15.533Z,98946.66
2022-10-06T18:06:45.973Z,98948.59
2022-10-06T18:09:15.558Z,98943.34
2022-10-06T18:11:48.085Z,98942.53
2022-10-06T18:14:18.980Z,98941.72
2022-10-06T18:16:55.092Z,98943.66
2022-10-06T18:19:28.471Z,98934.53
2022-10-06T18:21:59.064Z,98943.13
2022-10-06T18:24:29.351Z,98936.47
2022-10-06T18:27:01.185Z,98940.88
2022-10-06T18:29:31.234Z,98937.00
2022-10-06T18:33:37.235Z,98940.28
2022-10-06T18:37:37.243Z,98944.06
2022-10-06T18:40:08.639Z,98943.47
2022-10-06T18:42:38.935Z,98929.06
2022-10-06T18:45:26.906Z,98931.53
2022-10-06T18:48:13.006Z,98941.47
2022-10-06T18:50:41.581Z,98938.41
2022-10-06T18:53:09.977Z,98940.88
2022-10-06T18:55:38.349Z,98936.16
2022-10-06T18:58:08.144Z,98937.81
2022-10-06T19:00:36.572Z,98932.28
2022-10-06T19:03:05.327Z,98931.16
2022-10-06T19:05:35.085Z,98934.50
2022-10-06T19:08:04.465Z,98935.09
2022-10-06T19:10:55.765Z,98935.09
2022-10-06T19:13:25.541Z,98935.09
2022-10-06T19:15:54.391Z,98942.28
2022-10-06T19:18:22.911Z,98944.22
2022-10-06T19:20:51.836Z,98935.09
2022-10-06T19:23:20.261Z,98942.06
2022-10-06T19:25:49.744Z,98938.47
2022-10-06T19:28:18.222Z,98946.75
2022-10-06T19:30:57.627Z,98940.41
2022-10-06T19:33:26.780Z,98941.22
2022-10-06T19:35:57.141Z,98940.41
2022-10-06T19:38:26.105Z,98936.00
2022-10-06T19:40:54.581Z,98937.13
2022-10-06T19:43:22.080Z,98927.09
2022-10-06T19:45:58.502Z,98934.81
2022-10-06T19:48:28.077Z,98933.69
2022-10-06T19:50:56.479Z,98931.75
2022-10-06T19:53:24.886Z,98932.28
2022-10-06T19:56:01.520Z,98939.75
2022-10-06T19:58:29.937Z,98939.44
2022-10-06T20:01:00.281Z,98940.28
2022-10-06T20:03:30.306Z,98935.56
2022-10-06T20:06:03.507Z,98923.97
2022-10-06T20:08:32.357Z,98932.81
2022-10-06T20:11:05.886Z,98931.69
2022-10-06T20:13:35.828Z,98926.16
2022-10-06T20:16:08.457Z,98922.28
2022-10-06T20:18:39.993Z,98923.09
2022-10-06T20:21:13.475Z,98929.44
2022-10-06T20:23:41.936Z,98932.22
2022-10-06T20:26:12.280Z,98926.69
2022-10-06T20:28:41.180Z,98918.38
2022-10-06T20:31:22.587Z,98916.75
2022-10-06T20:33:51.394Z,98918.38
2022-10-06T20:36:20.496Z,98924.22
2022-10-06T20:39:07.032Z,98920.63
2022-10-06T20:41:35.565Z,98918.38
2022-10-06T20:44:04.790Z,98916.75
2022-10-06T20:46:36.588Z,98922.28
2022-10-06T20:49:06.989Z,98923.91
2022-10-06T20:51:38.073Z,98922.28
2022-10-06T20:54:07.445Z,98918.38
2022-10-06T20:56:36.487Z,98916.75
2022-10-06T20:59:07.478Z,98918.38
2022-10-06T21:01:38.820Z,98911.22
2022-10-06T21:04:09.116Z,98917.88
2022-10-06T21:06:38.828Z,98919.50
2022-10-06T21:09:08.638Z,98918.69
2022-10-06T21:11:37.061Z,98913.97
2022-10-06T21:14:10.170Z,98911.22
2022-10-06T21:16:42.443Z,98912.34
2022-10-06T21:19:14.095Z,98915.09
2022-10-06T21:21:43.565Z,98915.09
2022-10-06T21:24:11.924Z,98907.91
2022-10-06T21:26:42.606Z,98914.28
2022-10-06T21:29:12.757Z,98907.91
2022-10-06T21:31:43.291Z,98899.09
2022-10-06T21:34:12.656Z,98901.34
2022-10-06T21:36:41.470Z,98902.97
2022-10-06T21:39:10.311Z,98906.88
2022-10-06T21:41:39.681Z,98903.56
2022-10-06T21:44:10.415Z,98901.94
2022-10-06T21:46:40.495Z,98890.88
2022-10-06T21:49:14.215Z,98898.66
2022-10-06T21:51:45.651Z,98897.00
2022-10-06T21:54:14.273Z,98893.13
2022-10-06T21:56:42.663Z,98888.69
2022-10-06T21:59:12.483Z,98885.94
2022-10-06T22:01:43.326Z,98884.28
2022-10-06T22:04:14.314Z,98877.13
2022-10-06T22:06:44.560Z,98883.47
2022-10-06T22:09:16.303Z,98881.00
2022-10-06T22:11:44.923Z,98884.59
2022-10-06T22:14:15.035Z,98872.72
2022-10-06T22:16:43.764Z,98874.66
2022-10-06T22:19:16.221Z,98871.06
2022-10-06T22:21:47.024Z,98866.66
2022-10-06T22:24:16.883Z,98859.19
2022-10-06T22:26:46.473Z,98863.38
2022-10-06T22:29:18.038Z,98860.31
2022-10-06T22:31:47.919Z,98868.91
2022-10-06T22:34:19.395Z,98849.09
2022-10-06T22:36:47.853Z,98857.84
2022-10-06T22:39:16.499Z,98858.66
2022-10-06T22:41:45.312Z,98853.13
2022-10-06T22:44:13.681Z,98853.44
2022-10-06T22:46:42.140Z,98850.66
2022-10-06T22:49:10.677Z,98845.13
2022-10-06T22:51:40.362Z,98839.59
2022-10-06T22:54:08.805Z,98832.44
2022-10-06T22:56:37.190Z,98835.72
2022-10-06T22:59:05.788Z,98826.91
2022-10-06T23:01:34.114Z,98826.91
2022-10-06T23:04:02.627Z,98826.91
2022-10-06T23:06:31.752Z,98809.50
2022-10-06T23:09:03.208Z,98815.84
2022-10-06T23:11:31.607Z,98815.03
2022-10-06T23:14:01.373Z,98815.31
2022-10-06T23:16:29.776Z,98814.22
2022-10-06T23:18:58.648Z,98805.38
2022-10-06T23:21:27.517Z,98801.50
2022-10-06T23:23:58.932Z,98800.69
2022-10-06T23:26:29.359Z,98800.38
2022-10-06T23:28:59.554Z,98789.63
2022-10-06T23:31:29.076Z,98789.63
2022-10-06T23:33:57.589Z,98788.81
2022-10-06T23:36:26.013Z,98792.69
2022-10-06T23:38:54.398Z,98783.28
2022-10-06T23:41:22.810Z,98783.28
2022-10-06T23:43:52.891Z,98781.63
2022-10-06T23:46:21.314Z,98786.88
2022-10-06T23:48:49.732Z,98781.63
2022-10-06T23:51:18.267Z,98781.34
2022-10-06T23:53:46.924Z,98776.09
2022-10-06T23:56:15.370Z,98780.00
2022-10-06T23:58:43.721Z,98773.34
